sensor_id;sensor_type;location;lat;lon;timestamp;P1;durP1;ratioP1;P2;durP2;ratioP2
70312;SDS011;57723;51.698;5.344;2023-07-13T00:01:51;2.67;;;0.90;;
70312;SDS011;57723;51.698;5.344;2023-07-13T00:04:17;2.17;;;0.90;;
70312;SDS011;57723;51.698;5.344;2023-07-13T00:06:43;1.60;;;0.95;;
70312;SDS011;57723;51.698;5.344;2023-07-13T00:09:10;1.60;;;1.08;;
70312;SDS011;57723;51.698;5.344;2023-07-13T00:11:37;2.85;;;0.93;;
70312;SDS011;57723;51.698;5.344;2023-07-13T00:14:02;1.67;;;0.90;;
70312;SDS011;57723;51.698;5.344;2023-07-13T00:16:28;2.67;;;1.00;;
70312;SDS011;57723;51.698;5.344;2023-07-13T00:18:53;2.45;;;1.10;;
70312;SDS011;57723;51.698;5.344;2023-07-13T00:21:19;2.93;;;1.10;;
70312;SDS011;57723;51.698;5.344;2023-07-13T00:23:44;2.23;;;1.00;;
70312;SDS011;57723;51.698;5.344;2023-07-13T00:26:10;1.57;;;1.00;;
70312;SDS011;57723;51.698;5.344;2023-07-13T00:28:36;2.60;;;0.93;;
70312;SDS011;57723;51.698;5.344;2023-07-13T00:31:02;2.38;;;1.05;;
70312;SDS011;57723;51.698;5.344;2023-07-13T00:33:28;2.63;;;0.93;;
70312;SDS011;57723;51.698;5.344;2023-07-13T00:35:54;1.73;;;0.90;;
70312;SDS011;57723;51.698;5.344;2023-07-13T00:38:19;1.83;;;1.00;;
70312;SDS011;57723;51.698;5.344;2023-07-13T00:40:45;2.10;;;1.00;;
70312;SDS011;57723;51.698;5.344;2023-07-13T00:43:14;2.30;;;1.03;;
70312;SDS011;57723;51.698;5.344;2023-07-13T00:48:09;1.92;;;0.95;;
70312;SDS011;57723;51.698;5.344;2023-07-13T00:50:35;1.75;;;0.90;;
70312;SDS011;57723;51.698;5.344;2023-07-13T00:53:01;1.80;;;1.00;;
70312;SDS011;57723;51.698;5.344;2023-07-13T00:55:27;2.78;;;1.00;;
70312;SDS011;57723;51.698;5.344;2023-07-13T00:57:57;2.77;;;1.00;;
70312;SDS011;57723;51.698;5.344;2023-07-13T01:00:27;2.78;;;1.00;;
70312;SDS011;57723;51.698;5.344;2023-07-13T01:02:54;1.73;;;0.90;;
70312;SDS011;57723;51.698;5.344;2023-07-13T01:05:22;1.43;;;0.83;;
70312;SDS011;57723;51.698;5.344;2023-07-13T01:07:51;1.85;;;0.90;;
70312;SDS011;57723;51.698;5.344;2023-07-13T01:10:17;2.10;;;1.00;;
70312;SDS011;57723;51.698;5.344;2023-07-13T01:12:46;2.00;;;0.90;;
70312;SDS011;57723;51.698;5.344;2023-07-13T01:17:56;1.73;;;0.93;;
70312;SDS011;57723;51.698;5.344;2023-07-13T01:20:22;2.13;;;0.85;;
70312;SDS011;57723;51.698;5.344;2023-07-13T01:22:47;2.40;;;1.10;;
70312;SDS011;57723;51.698;5.344;2023-07-13T01:25:13;2.00;;;0.90;;
70312;SDS011;57723;51.698;5.344;2023-07-13T01:27:38;2.23;;;1.10;;
70312;SDS011;57723;51.698;5.344;2023-07-13T01:30:06;1.73;;;0.90;;
70312;SDS011;57723;51.698;5.344;2023-07-13T01:32:35;2.17;;;1.00;;
70312;SDS011;57723;51.698;5.344;2023-07-13T01:35:02;1.70;;;0.90;;
70312;SDS011;57723;51.698;5.344;2023-07-13T01:37:30;2.42;;;1.00;;
70312;SDS011;57723;51.698;5.344;2023-07-13T01:39:59;2.07;;;0.90;;
70312;SDS011;57723;51.698;5.344;2023-07-13T01:42:24;2.13;;;1.00;;
70312;SDS011;57723;51.698;5.344;2023-07-13T01:44:49;2.30;;;0.93;;
70312;SDS011;57723;51.698;5.344;2023-07-13T01:47:17;3.97;;;1.20;;
70312;SDS011;57723;51.698;5.344;2023-07-13T01:49:42;1.65;;;0.90;;
70312;SDS011;57723;51.698;5.344;2023-07-13T01:52:11;2.15;;;0.95;;
70312;SDS011;57723;51.698;5.344;2023-07-13T01:54:36;2.43;;;1.10;;
70312;SDS011;57723;51.698;5.344;2023-07-13T01:57:02;1.63;;;0.70;;
70312;SDS011;57723;51.698;5.344;2023-07-13T01:59:28;2.15;;;0.88;;
70312;SDS011;57723;51.698;5.344;2023-07-13T02:01:54;2.83;;;0.87;;
70312;SDS011;57723;51.698;5.344;2023-07-13T02:04:19;1.33;;;0.90;;
70312;SDS011;57723;51.698;5.344;2023-07-13T02:06:44;1.67;;;0.90;;
70312;SDS011;57723;51.698;5.344;2023-07-13T02:09:10;2.13;;;0.97;;
70312;SDS011;57723;51.698;5.344;2023-07-13T02:11:35;2.13;;;1.00;;
70312;SDS011;57723;51.698;5.344;2023-07-13T02:14:01;2.03;;;1.00;;
70312;SDS011;57723;51.698;5.344;2023-07-13T02:16:29;2.13;;;0.98;;
70312;SDS011;57723;51.698;5.344;2023-07-13T02:18:55;2.25;;;0.95;;
70312;SDS011;57723;51.698;5.344;2023-07-13T02:21:21;2.03;;;1.00;;
70312;SDS011;57723;51.698;5.344;2023-07-13T02:23:46;1.58;;;0.93;;
70312;SDS011;57723;51.698;5.344;2023-07-13T02:26:11;2.20;;;0.97;;
70312;SDS011;57723;51.698;5.344;2023-07-13T02:28:37;1.87;;;0.87;;
70312;SDS011;57723;51.698;5.344;2023-07-13T02:31:06;2.17;;;0.90;;
70312;SDS011;57723;51.698;5.344;2023-07-13T02:33:32;2.38;;;0.90;;
70312;SDS011;57723;51.698;5.344;2023-07-13T02:36:00;2.75;;;1.00;;
70312;SDS011;57723;51.698;5.344;2023-07-13T02:38:25;2.95;;;0.90;;
70312;SDS011;57723;51.698;5.344;2023-07-13T02:40:54;2.80;;;0.73;;
70312;SDS011;57723;51.698;5.344;2023-07-13T02:43:21;1.40;;;0.80;;
70312;SDS011;57723;51.698;5.344;2023-07-13T02:45:47;2.08;;;0.80;;
70312;SDS011;57723;51.698;5.344;2023-07-13T02:48:13;1.37;;;0.80;;
70312;SDS011;57723;51.698;5.344;2023-07-13T02:50:39;2.45;;;1.00;;
70312;SDS011;57723;51.698;5.344;2023-07-13T02:53:04;2.73;;;1.00;;
70312;SDS011;57723;51.698;5.344;2023-07-13T02:55:30;1.52;;;0.90;;
70312;SDS011;57723;51.698;5.344;2023-07-13T02:58:01;3.42;;;1.20;;
70312;SDS011;57723;51.698;5.344;2023-07-13T03:00:27;2.30;;;0.83;;
70312;SDS011;57723;51.698;5.344;2023-07-13T03:02:53;2.03;;;0.80;;
70312;SDS011;57723;51.698;5.344;2023-07-13T03:05:22;1.63;;;0.90;;
70312;SDS011;57723;51.698;5.344;2023-07-13T03:07:48;3.50;;;0.98;;
70312;SDS011;57723;51.698;5.344;2023-07-13T03:10:13;1.97;;;1.00;;
70312;SDS011;57723;51.698;5.344;2023-07-13T03:12:39;1.93;;;0.90;;
70312;SDS011;57723;51.698;5.344;2023-07-13T03:15:04;1.55;;;0.90;;
70312;SDS011;57723;51.698;5.344;2023-07-13T03:17:30;1.30;;;0.80;;
70312;SDS011;57723;51.698;5.344;2023-07-13T03:19:58;3.10;;;1.00;;
70312;SDS011;57723;51.698;5.344;2023-07-13T03:22:23;1.83;;;1.00;;
70312;SDS011;57723;51.698;5.344;2023-07-13T03:24:56;1.53;;;0.73;;
70312;SDS011;57723;51.698;5.344;2023-07-13T03:27:21;2.00;;;1.17;;
70312;SDS011;57723;51.698;5.344;2023-07-13T03:29:47;1.80;;;1.00;;
70312;SDS011;57723;51.698;5.344;2023-07-13T03:32:12;2.60;;;0.93;;
70312;SDS011;57723;51.698;5.344;2023-07-13T03:34:41;1.23;;;0.80;;
70312;SDS011;57723;51.698;5.344;2023-07-13T03:37:06;2.03;;;0.90;;
70312;SDS011;57723;51.698;5.344;2023-07-13T03:39:35;2.28;;;0.90;;
70312;SDS011;57723;51.698;5.344;2023-07-13T03:42:00;2.10;;;0.97;;
70312;SDS011;57723;51.698;5.344;2023-07-13T03:44:25;1.20;;;0.80;;
70312;SDS011;57723;51.698;5.344;2023-07-13T03:46:51;1.47;;;0.90;;
70312;SDS011;57723;51.698;5.344;2023-07-13T03:49:16;1.93;;;0.90;;
70312;SDS011;57723;51.698;5.344;2023-07-13T03:51:42;2.70;;;0.95;;
70312;SDS011;57723;51.698;5.344;2023-07-13T03:54:10;2.87;;;0.90;;
70312;SDS011;57723;51.698;5.344;2023-07-13T03:56:35;2.42;;;1.00;;
70312;SDS011;57723;51.698;5.344;2023-07-13T03:59:03;1.70;;;1.00;;
70312;SDS011;57723;51.698;5.344;2023-07-13T04:01:28;2.83;;;1.10;;
70312;SDS011;57723;51.698;5.344;2023-07-13T04:03:54;2.20;;;0.93;;
70312;SDS011;57723;51.698;5.344;2023-07-13T04:06:20;2.53;;;1.00;;
70312;SDS011;57723;51.698;5.344;2023-07-13T04:08:46;1.45;;;0.90;;
70312;SDS011;57723;51.698;5.344;2023-07-13T04:11:14;2.13;;;1.10;;
70312;SDS011;57723;51.698;5.344;2023-07-13T04:13:43;2.70;;;1.80;;
70312;SDS011;57723;51.698;5.344;2023-07-13T04:16:09;3.08;;;1.00;;
70312;SDS011;57723;51.698;5.344;2023-07-13T04:18:35;2.20;;;0.93;;
70312;SDS011;57723;51.698;5.344;2023-07-13T04:21:00;1.40;;;0.83;;
70312;SDS011;57723;51.698;5.344;2023-07-13T04:23:25;2.43;;;0.90;;
70312;SDS011;57723;51.698;5.344;2023-07-13T04:25:54;1.80;;;0.90;;
70312;SDS011;57723;51.698;5.344;2023-07-13T04:28:21;1.77;;;0.70;;
70312;SDS011;57723;51.698;5.344;2023-07-13T04:30:46;3.60;;;1.00;;
70312;SDS011;57723;51.698;5.344;2023-07-13T04:33:21;1.67;;;0.90;;
70312;SDS011;57723;51.698;5.344;2023-07-13T04:35:48;1.90;;;0.90;;
70312;SDS011;57723;51.698;5.344;2023-07-13T04:38:13;2.80;;;1.10;;
70312;SDS011;57723;51.698;5.344;2023-07-13T04:40:44;2.03;;;1.07;;
70312;SDS011;57723;51.698;5.344;2023-07-13T04:43:09;2.63;;;1.00;;
70312;SDS011;57723;51.698;5.344;2023-07-13T04:45:35;2.23;;;0.97;;
70312;SDS011;57723;51.698;5.344;2023-07-13T04:48:00;3.40;;;1.10;;
70312;SDS011;57723;51.698;5.344;2023-07-13T04:50:26;2.93;;;1.17;;
70312;SDS011;57723;51.698;5.344;2023-07-13T04:52:51;2.43;;;0.90;;
70312;SDS011;57723;51.698;5.344;2023-07-13T04:55:17;2.30;;;0.80;;
70312;SDS011;57723;51.698;5.344;2023-07-13T04:57:44;1.07;;;0.70;;
70312;SDS011;57723;51.698;5.344;2023-07-13T05:00:09;2.65;;;1.02;;
70312;SDS011;57723;51.698;5.344;2023-07-13T05:02:37;3.17;;;1.20;;
70312;SDS011;57723;51.698;5.344;2023-07-13T05:05:02;2.15;;;1.10;;
70312;SDS011;57723;51.698;5.344;2023-07-13T05:07:29;2.28;;;1.00;;
70312;SDS011;57723;51.698;5.344;2023-07-13T05:09:55;3.07;;;1.20;;
70312;SDS011;57723;51.698;5.344;2023-07-13T05:12:20;2.92;;;1.40;;
70312;SDS011;57723;51.698;5.344;2023-07-13T05:14:45;3.70;;;2.27;;
70312;SDS011;57723;51.698;5.344;2023-07-13T05:17:11;3.37;;;2.77;;
70312;SDS011;57723;51.698;5.344;2023-07-13T05:19:36;5.73;;;3.27;;
70312;SDS011;57723;51.698;5.344;2023-07-13T05:22:02;4.25;;;3.38;;
70312;SDS011;57723;51.698;5.344;2023-07-13T05:24:29;4.40;;;3.93;;
70312;SDS011;57723;51.698;5.344;2023-07-13T05:26:57;4.07;;;3.70;;
70312;SDS011;57723;51.698;5.344;2023-07-13T05:29:23;4.40;;;4.00;;
70312;SDS011;57723;51.698;5.344;2023-07-13T05:31:51;4.90;;;4.47;;
70312;SDS011;57723;51.698;5.344;2023-07-13T05:34:16;4.88;;;4.32;;
70312;SDS011;57723;51.698;5.344;2023-07-13T05:36:45;4.53;;;4.13;;
70312;SDS011;57723;51.698;5.344;2023-07-13T05:39:10;4.75;;;4.30;;
70312;SDS011;57723;51.698;5.344;2023-07-13T05:41:36;4.63;;;4.20;;
70312;SDS011;57723;51.698;5.344;2023-07-13T05:44:05;5.00;;;4.60;;
70312;SDS011;57723;51.698;5.344;2023-07-13T05:46:35;4.50;;;4.10;;
70312;SDS011;57723;51.698;5.344;2023-07-13T05:49:03;4.80;;;4.32;;
70312;SDS011;57723;51.698;5.344;2023-07-13T05:51:29;4.97;;;4.10;;
70312;SDS011;57723;51.698;5.344;2023-07-13T05:53:55;5.97;;;4.32;;
70312;SDS011;57723;51.698;5.344;2023-07-13T05:56:20;4.47;;;4.07;;
70312;SDS011;57723;51.698;5.344;2023-07-13T05:58:47;5.53;;;4.53;;
70312;SDS011;57723;51.698;5.344;2023-07-13T06:01:13;4.78;;;4.38;;
70312;SDS011;57723;51.698;5.344;2023-07-13T06:03:40;5.53;;;4.70;;
70312;SDS011;57723;51.698;5.344;2023-07-13T06:06:06;8.07;;;5.13;;
70312;SDS011;57723;51.698;5.344;2023-07-13T06:08:34;7.88;;;5.22;;
70312;SDS011;57723;51.698;5.344;2023-07-13T06:11:04;7.03;;;5.63;;
70312;SDS011;57723;51.698;5.344;2023-07-13T06:13:30;6.67;;;5.37;;
70312;SDS011;57723;51.698;5.344;2023-07-13T06:15:55;8.93;;;5.50;;
70312;SDS011;57723;51.698;5.344;2023-07-13T06:18:21;8.57;;;4.93;;
70312;SDS011;57723;51.698;5.344;2023-07-13T06:20:46;6.90;;;5.53;;
70312;SDS011;57723;51.698;5.344;2023-07-13T06:23:15;10.45;;;6.28;;
70312;SDS011;57723;51.698;5.344;2023-07-13T06:25:41;10.50;;;5.90;;
70312;SDS011;57723;51.698;5.344;2023-07-13T06:28:08;10.50;;;5.80;;
70312;SDS011;57723;51.698;5.344;2023-07-13T06:30:34;8.25;;;5.47;;
70312;SDS011;57723;51.698;5.344;2023-07-13T06:32:59;9.47;;;5.47;;
70312;SDS011;57723;51.698;5.344;2023-07-13T06:35:27;9.10;;;5.90;;
70312;SDS011;57723;51.698;5.344;2023-07-13T06:37:53;10.15;;;5.68;;
70312;SDS011;57723;51.698;5.344;2023-07-13T06:40:19;9.38;;;5.10;;
70312;SDS011;57723;51.698;5.344;2023-07-13T06:42:44;7.27;;;5.13;;
70312;SDS011;57723;51.698;5.344;2023-07-13T06:45:12;8.07;;;5.60;;
70312;SDS011;57723;51.698;5.344;2023-07-13T06:47:37;9.52;;;5.78;;
70312;SDS011;57723;51.698;5.344;2023-07-13T06:50:03;9.07;;;5.77;;
70312;SDS011;57723;51.698;5.344;2023-07-13T06:52:28;8.03;;;5.30;;
70312;SDS011;57723;51.698;5.344;2023-07-13T06:54:54;8.75;;;5.93;;
70312;SDS011;57723;51.698;5.344;2023-07-13T06:57:19;10.10;;;6.17;;
70312;SDS011;57723;51.698;5.344;2023-07-13T06:59:50;13.18;;;6.60;;
70312;SDS011;57723;51.698;5.344;2023-07-13T07:02:15;11.43;;;6.32;;
70312;SDS011;57723;51.698;5.344;2023-07-13T07:04:41;10.60;;;6.10;;
70312;SDS011;57723;51.698;5.344;2023-07-13T07:07:06;6.83;;;6.00;;
70312;SDS011;57723;51.698;5.344;2023-07-13T07:09:32;9.85;;;6.40;;
70312;SDS011;57723;51.698;5.344;2023-07-13T07:11:58;9.60;;;6.50;;
70312;SDS011;57723;51.698;5.344;2023-07-13T07:14:24;9.68;;;6.55;;
70312;SDS011;57723;51.698;5.344;2023-07-13T07:16:51;11.33;;;5.90;;
70312;SDS011;57723;51.698;5.344;2023-07-13T07:19:20;6.93;;;6.22;;
70312;SDS011;57723;51.698;5.344;2023-07-13T07:21:48;10.25;;;6.63;;
70312;SDS011;57723;51.698;5.344;2023-07-13T07:24:14;10.00;;;6.63;;
70312;SDS011;57723;51.698;5.344;2023-07-13T07:26:45;7.63;;;6.45;;
70312;SDS011;57723;51.698;5.344;2023-07-13T07:29:10;12.10;;;6.10;;
70312;SDS011;57723;51.698;5.344;2023-07-13T07:31:36;9.02;;;6.18;;
70312;SDS011;57723;51.698;5.344;2023-07-13T07:34:05;10.53;;;6.27;;
70312;SDS011;57723;51.698;5.344;2023-07-13T07:36:31;9.65;;;6.70;;
70312;SDS011;57723;51.698;5.344;2023-07-13T07:38:59;10.73;;;7.10;;
70312;SDS011;57723;51.698;5.344;2023-07-13T07:41:27;9.67;;;6.73;;
70312;SDS011;57723;51.698;5.344;2023-07-13T07:43:55;12.63;;;7.18;;
70312;SDS011;57723;51.698;5.344;2023-07-13T07:46:21;11.57;;;7.63;;
70312;SDS011;57723;51.698;5.344;2023-07-13T07:48:46;12.93;;;6.50;;
70312;SDS011;57723;51.698;5.344;2023-07-13T07:51:15;10.07;;;6.77;;
70312;SDS011;57723;51.698;5.344;2023-07-13T07:53:40;9.77;;;6.53;;
70312;SDS011;57723;51.698;5.344;2023-07-13T07:56:06;13.50;;;7.10;;
70312;SDS011;57723;51.698;5.344;2023-07-13T07:58:35;9.63;;;6.82;;
70312;SDS011;57723;51.698;5.344;2023-07-13T08:01:03;10.77;;;7.33;;
70312;SDS011;57723;51.698;5.344;2023-07-13T08:03:29;11.57;;;6.50;;
70312;SDS011;57723;51.698;5.344;2023-07-13T08:05:59;10.65;;;7.32;;
70312;SDS011;57723;51.698;5.344;2023-07-13T08:08:25;10.85;;;6.97;;
70312;SDS011;57723;51.698;5.344;2023-07-13T08:10:53;10.20;;;7.10;;
70312;SDS011;57723;51.698;5.344;2023-07-13T08:13:19;10.73;;;6.43;;
70312;SDS011;57723;51.698;5.344;2023-07-13T08:15:44;14.07;;;7.40;;
70312;SDS011;57723;51.698;5.344;2023-07-13T08:18:10;15.27;;;6.95;;
70312;SDS011;57723;51.698;5.344;2023-07-13T08:20:38;10.17;;;6.60;;
70312;SDS011;57723;51.698;5.344;2023-07-13T08:23:04;9.32;;;7.38;;
70312;SDS011;57723;51.698;5.344;2023-07-13T08:25:30;10.27;;;6.80;;
70312;SDS011;57723;51.698;5.344;2023-07-13T08:27:55;8.93;;;6.83;;
70312;SDS011;57723;51.698;5.344;2023-07-13T08:30:21;9.97;;;7.17;;
70312;SDS011;57723;51.698;5.344;2023-07-13T08:32:47;9.80;;;6.60;;
70312;SDS011;57723;51.698;5.344;2023-07-13T08:35:12;9.27;;;6.70;;
70312;SDS011;57723;51.698;5.344;2023-07-13T08:37:41;9.40;;;6.80;;
70312;SDS011;57723;51.698;5.344;2023-07-13T08:40:08;12.30;;;6.78;;
70312;SDS011;57723;51.698;5.344;2023-07-13T08:42:45;9.33;;;6.13;;
70312;SDS011;57723;51.698;5.344;2023-07-13T08:45:25;9.93;;;6.90;;
70312;SDS011;57723;51.698;5.344;2023-07-13T08:47:56;9.65;;;6.85;;
70312;SDS011;57723;51.698;5.344;2023-07-13T08:50:30;9.95;;;6.50;;
70312;SDS011;57723;51.698;5.344;2023-07-13T08:52:59;8.30;;;6.40;;
70312;SDS011;57723;51.698;5.344;2023-07-13T08:55:27;8.03;;;5.87;;
70312;SDS011;57723;51.698;5.344;2023-07-13T08:57:57;7.78;;;6.25;;
70312;SDS011;57723;51.698;5.344;2023-07-13T09:00:24;8.63;;;6.80;;
70312;SDS011;57723;51.698;5.344;2023-07-13T09:02:56;9.38;;;6.80;;
70312;SDS011;57723;51.698;5.344;2023-07-13T09:05:30;9.73;;;6.45;;
70312;SDS011;57723;51.698;5.344;2023-07-13T09:11:12;9.27;;;6.10;;
70312;SDS011;57723;51.698;5.344;2023-07-13T09:13:32;9.63;;;6.63;;
70312;SDS011;57723;51.698;5.344;2023-07-13T09:16:02;7.25;;;6.10;;
70312;SDS011;57723;51.698;5.344;2023-07-13T09:18:30;8.85;;;6.18;;
70312;SDS011;57723;51.698;5.344;2023-07-13T09:20:58;7.97;;;5.70;;
70312;SDS011;57723;51.698;5.344;2023-07-13T09:23:26;8.77;;;6.60;;
70312;SDS011;57723;51.698;5.344;2023-07-13T09:25:54;7.40;;;5.95;;
70312;SDS011;57723;51.698;5.344;2023-07-13T09:28:25;7.25;;;5.63;;
70312;SDS011;57723;51.698;5.344;2023-07-13T09:31:37;10.07;;;6.47;;
70312;SDS011;57723;51.698;5.344;2023-07-13T09:33:37;9.37;;;5.80;;
70312;SDS011;57723;51.698;5.344;2023-07-13T09:36:12;8.77;;;5.90;;
70312;SDS011;57723;51.698;5.344;2023-07-13T09:44:13;9.37;;;6.23;;
70312;SDS011;57723;51.698;5.344;2023-07-13T09:46:46;7.82;;;6.10;;
70312;SDS011;57723;51.698;5.344;2023-07-13T09:49:12;8.63;;;6.45;;
70312;SDS011;57723;51.698;5.344;2023-07-13T09:51:38;8.40;;;6.35;;
70312;SDS011;57723;51.698;5.344;2023-07-13T09:54:04;9.20;;;5.95;;
70312;SDS011;57723;51.698;5.344;2023-07-13T09:56:29;10.10;;;6.40;;
70312;SDS011;57723;51.698;5.344;2023-07-13T09:58:55;8.80;;;6.10;;
70312;SDS011;57723;51.698;5.344;2023-07-13T10:01:35;6.15;;;5.45;;
70312;SDS011;57723;51.698;5.344;2023-07-13T10:04:01;8.00;;;6.25;;
70312;SDS011;57723;51.698;5.344;2023-07-13T10:06:26;7.93;;;6.10;;
70312;SDS011;57723;51.698;5.344;2023-07-13T10:08:52;6.53;;;5.90;;
70312;SDS011;57723;51.698;5.344;2023-07-13T10:11:23;6.60;;;5.82;;
70312;SDS011;57723;51.698;5.344;2023-07-13T10:13:56;6.78;;;5.70;;
70312;SDS011;57723;51.698;5.344;2023-07-13T10:16:29;7.23;;;5.80;;
70312;SDS011;57723;51.698;5.344;2023-07-13T10:18:58;6.47;;;5.45;;
70312;SDS011;57723;51.698;5.344;2023-07-13T10:21:27;7.38;;;5.95;;
70312;SDS011;57723;51.698;5.344;2023-07-13T10:23:56;6.95;;;5.63;;
70312;SDS011;57723;51.698;5.344;2023-07-13T10:26:26;7.07;;;6.25;;
70312;SDS011;57723;51.698;5.344;2023-07-13T10:28:56;7.77;;;5.87;;
70312;SDS011;57723;51.698;5.344;2023-07-13T10:31:22;8.25;;;5.30;;
70312;SDS011;57723;51.698;5.344;2023-07-13T10:33:50;6.22;;;5.63;;
70312;SDS011;57723;51.698;5.344;2023-07-13T10:36:33;8.40;;;5.70;;
70312;SDS011;57723;51.698;5.344;2023-07-13T10:39:00;7.80;;;6.13;;
70312;SDS011;57723;51.698;5.344;2023-07-13T10:41:27;7.17;;;5.47;;
70312;SDS011;57723;51.698;5.344;2023-07-13T10:43:55;6.22;;;5.63;;
70312;SDS011;57723;51.698;5.344;2023-07-13T10:46:22;8.50;;;6.40;;
70312;SDS011;57723;51.698;5.344;2023-07-13T10:48:49;6.93;;;6.22;;
70312;SDS011;57723;51.698;5.344;2023-07-13T10:51:18;7.68;;;5.75;;
70312;SDS011;57723;51.698;5.344;2023-07-13T10:53:46;6.57;;;5.20;;
70312;SDS011;57723;51.698;5.344;2023-07-13T10:56:30;6.30;;;5.70;;
70312;SDS011;57723;51.698;5.344;2023-07-13T10:59:09;5.85;;;4.85;;
70312;SDS011;57723;51.698;5.344;2023-07-13T11:01:40;6.07;;;5.47;;
70312;SDS011;57723;51.698;5.344;2023-07-13T11:04:08;7.03;;;5.70;;
70312;SDS011;57723;51.698;5.344;2023-07-13T11:06:37;8.00;;;5.60;;
70312;SDS011;57723;51.698;5.344;2023-07-13T11:12:06;8.55;;;5.47;;
70312;SDS011;57723;51.698;5.344;2023-07-13T11:14:45;7.25;;;5.45;;
70312;SDS011;57723;51.698;5.344;2023-07-13T11:20:07;6.03;;;5.43;;
70312;SDS011;57723;51.698;5.344;2023-07-13T11:22:47;7.07;;;5.80;;
70312;SDS011;57723;51.698;5.344;2023-07-13T11:28:36;5.93;;;5.35;;
70312;SDS011;57723;51.698;5.344;2023-07-13T11:30:40;6.43;;;5.78;;
70312;SDS011;57723;51.698;5.344;2023-07-13T11:35:49;6.10;;;5.33;;
70312;SDS011;57723;51.698;5.344;2023-07-13T11:38:19;8.95;;;5.53;;
70312;SDS011;57723;51.698;5.344;2023-07-13T11:40:46;7.13;;;5.60;;
70312;SDS011;57723;51.698;5.344;2023-07-13T11:43:12;7.38;;;5.57;;
70312;SDS011;57723;51.698;5.344;2023-07-13T11:45:39;5.93;;;5.30;;
70312;SDS011;57723;51.698;5.344;2023-07-13T11:50:57;6.25;;;5.65;;
70312;SDS011;57723;51.698;5.344;2023-07-13T11:53:27;7.03;;;5.60;;
70312;SDS011;57723;51.698;5.344;2023-07-13T11:55:54;5.70;;;5.20;;
70312;SDS011;57723;51.698;5.344;2023-07-13T11:58:21;6.27;;;5.43;;
70312;SDS011;57723;51.698;5.344;2023-07-13T12:00:48;6.15;;;5.43;;
70312;SDS011;57723;51.698;5.344;2023-07-13T12:03:14;6.10;;;5.20;;
70312;SDS011;57723;51.698;5.344;2023-07-13T12:06:06;5.97;;;5.38;;
70312;SDS011;57723;51.698;5.344;2023-07-13T12:08:45;5.93;;;5.43;;
70312;SDS011;57723;51.698;5.344;2023-07-13T12:11:29;5.77;;;5.27;;
70312;SDS011;57723;51.698;5.344;2023-07-13T12:14:03;6.53;;;5.20;;
70312;SDS011;57723;51.698;5.344;2023-07-13T12:16:32;6.80;;;5.63;;
70312;SDS011;57723;51.698;5.344;2023-07-13T12:19:09;6.05;;;5.45;;
70312;SDS011;57723;51.698;5.344;2023-07-13T12:21:46;6.60;;;5.80;;
70312;SDS011;57723;51.698;5.344;2023-07-13T12:24:18;6.32;;;5.82;;
70312;SDS011;57723;51.698;5.344;2023-07-13T12:27:03;6.07;;;4.95;;
70312;SDS011;57723;51.698;5.344;2023-07-13T12:29:30;6.13;;;5.53;;
70312;SDS011;57723;51.698;5.344;2023-07-13T12:31:57;6.03;;;5.43;;
70312;SDS011;57723;51.698;5.344;2023-07-13T12:34:25;5.57;;;5.07;;
70312;SDS011;57723;51.698;5.344;2023-07-13T12:36:55;6.32;;;5.45;;
70312;SDS011;57723;51.698;5.344;2023-07-13T12:39:37;5.35;;;4.85;;
70312;SDS011;57723;51.698;5.344;2023-07-13T12:42:19;6.30;;;5.07;;
70312;SDS011;57723;51.698;5.344;2023-07-13T12:47:20;5.63;;;5.13;;
70312;SDS011;57723;51.698;5.344;2023-07-13T12:49:47;5.77;;;5.13;;
70312;SDS011;57723;51.698;5.344;2023-07-13T12:52:22;5.83;;;5.13;;
70312;SDS011;57723;51.698;5.344;2023-07-13T12:54:55;5.00;;;4.50;;
70312;SDS011;57723;51.698;5.344;2023-07-13T12:57:22;4.80;;;4.40;;
70312;SDS011;57723;51.698;5.344;2023-07-13T12:59:51;5.60;;;5.10;;
70312;SDS011;57723;51.698;5.344;2023-07-13T13:02:22;5.87;;;5.37;;
70312;SDS011;57723;51.698;5.344;2023-07-13T13:04:51;5.70;;;5.20;;
70312;SDS011;57723;51.698;5.344;2023-07-13T13:07:20;6.10;;;5.45;;
70312;SDS011;57723;51.698;5.344;2023-07-13T13:09:45;5.70;;;5.13;;
70312;SDS011;57723;51.698;5.344;2023-07-13T13:12:12;5.60;;;5.10;;
70312;SDS011;57723;51.698;5.344;2023-07-13T13:14:37;6.10;;;5.03;;
70312;SDS011;57723;51.698;5.344;2023-07-13T13:17:19;6.63;;;5.37;;
70312;SDS011;57723;51.698;5.344;2023-07-13T13:19:44;5.82;;;5.32;;
70312;SDS011;57723;51.698;5.344;2023-07-13T13:22:10;5.80;;;5.20;;
70312;SDS011;57723;51.698;5.344;2023-07-13T13:24:36;5.27;;;4.77;;
70312;SDS011;57723;51.698;5.344;2023-07-13T13:27:01;6.05;;;5.45;;
70312;SDS011;57723;51.698;5.344;2023-07-13T13:29:27;6.00;;;5.40;;
70312;SDS011;57723;51.698;5.344;2023-07-13T13:31:55;5.22;;;4.82;;
70312;SDS011;57723;51.698;5.344;2023-07-13T13:34:24;5.30;;;4.90;;
70312;SDS011;57723;51.698;5.344;2023-07-13T13:36:50;5.70;;;5.20;;
70312;SDS011;57723;51.698;5.344;2023-07-13T13:39:24;5.45;;;4.95;;
70312;SDS011;57723;51.698;5.344;2023-07-13T13:41:50;5.70;;;5.07;;
70312;SDS011;57723;51.698;5.344;2023-07-13T13:44:16;5.57;;;5.13;;
70312;SDS011;57723;51.698;5.344;2023-07-13T13:46:42;5.80;;;5.30;;
70312;SDS011;57723;51.698;5.344;2023-07-13T13:49:14;4.95;;;4.55;;
70312;SDS011;57723;51.698;5.344;2023-07-13T13:51:44;5.57;;;4.80;;
70312;SDS011;57723;51.698;5.344;2023-07-13T13:54:13;6.30;;;4.90;;
70312;SDS011;57723;51.698;5.344;2023-07-13T13:56:38;5.93;;;4.60;;
70312;SDS011;57723;51.698;5.344;2023-07-13T13:59:04;5.40;;;4.90;;
70312;SDS011;57723;51.698;5.344;2023-07-13T14:01:33;5.77;;;4.97;;
70312;SDS011;57723;51.698;5.344;2023-07-13T14:04:00;5.82;;;4.90;;
70312;SDS011;57723;51.698;5.344;2023-07-13T14:06:26;5.17;;;4.63;;
70312;SDS011;57723;51.698;5.344;2023-07-13T14:08:53;5.53;;;5.00;;
70312;SDS011;57723;51.698;5.344;2023-07-13T14:11:20;5.90;;;5.30;;
70312;SDS011;57723;51.698;5.344;2023-07-13T14:13:59;5.28;;;4.82;;
70312;SDS011;57723;51.698;5.344;2023-07-13T14:16:31;5.40;;;4.90;;
70312;SDS011;57723;51.698;5.344;2023-07-13T14:18:57;5.80;;;5.27;;
70312;SDS011;57723;51.698;5.344;2023-07-13T14:21:25;5.03;;;4.63;;
70312;SDS011;57723;51.698;5.344;2023-07-13T14:23:50;5.88;;;5.10;;
70312;SDS011;57723;51.698;5.344;2023-07-13T14:26:19;5.40;;;4.90;;
70312;SDS011;57723;51.698;5.344;2023-07-13T14:28:46;5.80;;;5.20;;
70312;SDS011;57723;51.698;5.344;2023-07-13T14:31:15;5.70;;;4.95;;
70312;SDS011;57723;51.698;5.344;2023-07-13T14:33:42;5.18;;;4.68;;
70312;SDS011;57723;51.698;5.344;2023-07-13T14:36:15;5.60;;;5.10;;
70312;SDS011;57723;51.698;5.344;2023-07-13T14:38:42;5.35;;;4.90;;
70312;SDS011;57723;51.698;5.344;2023-07-13T14:41:07;4.80;;;4.40;;
70312;SDS011;57723;51.698;5.344;2023-07-13T14:43:33;4.95;;;4.45;;
70312;SDS011;57723;51.698;5.344;2023-07-13T14:45:58;5.67;;;4.73;;
70312;SDS011;57723;51.698;5.344;2023-07-13T14:48:27;5.40;;;4.82;;
70312;SDS011;57723;51.698;5.344;2023-07-13T14:50:54;5.57;;;4.93;;
70312;SDS011;57723;51.698;5.344;2023-07-13T14:53:20;6.17;;;5.00;;
70312;SDS011;57723;51.698;5.344;2023-07-13T14:55:45;5.47;;;4.97;;
70312;SDS011;57723;51.698;5.344;2023-07-13T14:58:11;5.10;;;4.70;;
70312;SDS011;57723;51.698;5.344;2023-07-13T15:00:38;5.43;;;4.93;;
70312;SDS011;57723;51.698;5.344;2023-07-13T15:03:09;5.03;;;4.55;;
70312;SDS011;57723;51.698;5.344;2023-07-13T15:05:39;5.00;;;4.60;;
70312;SDS011;57723;51.698;5.344;2023-07-13T15:08:05;4.80;;;4.30;;
70312;SDS011;57723;51.698;5.344;2023-07-13T15:10:31;5.38;;;4.35;;
70312;SDS011;57723;51.698;5.344;2023-07-13T15:12:59;5.87;;;4.70;;
70312;SDS011;57723;51.698;5.344;2023-07-13T15:15:26;4.85;;;4.43;;
70312;SDS011;57723;51.698;5.344;2023-07-13T15:17:56;6.55;;;5.20;;
70312;SDS011;57723;51.698;5.344;2023-07-13T15:20:25;5.23;;;4.50;;